Time;durP1;ratioP1;P1;durP2;ratioP2;P2;SDS_P1;SDS_P2;PMS_P1;PMS_P2;Temp;Humidity;BMP_temperature;BMP_pressure;BME280_temperature;BME280_humidity;BME280_pressure;Samples;Min_cycle;Max_cycle;Signal;HPM_P1;HPM_P2
2023/04/17 00:00:03;;;;;;;;;;;;;;;5.81;71.46;102092.19;5076338;28;2326;-76
2023/04/17 00:02:30;;;;;;;;;;;;;;;5.80;71.60;102091.34;5072027;28;2125;-78
2023/04/17 00:04:56;;;;;;;;;;;;;;;5.81;71.33;102097.53;5071559;28;4926;-77
2023/04/17 00:07:23;;;;;;;;;;;;;;;5.79;71.41;102103.00;5054466;28;3377;-79
2023/04/17 00:09:49;;;;;;;;;;;;;;;5.80;71.29;102104.72;5074471;28;4309;-78
2023/04/17 00:12:16;;;;;;;;;;;;;;;5.80;71.34;102101.22;5055455;28;2504;-78
2023/04/17 00:14:43;;;;;;;;;;;;;;;5.79;71.06;102102.19;5056235;28;2497;-78
2023/04/17 00:17:09;;;;;;;;;;;;;;;5.79;71.19;102105.69;5071191;28;2267;-78
2023/04/17 00:19:36;;;;;;;;;;;;;;;5.78;71.22;102106.69;5057153;28;2081;-79
2023/04/17 00:22:03;;;;;;;;;;;;;;;5.78;71.08;102109.38;5073572;28;3970;-78
2023/04/17 00:24:29;;;;;;;;;;;;;;;5.78;71.23;102098.69;5053946;28;2202;-79
2023/04/17 00:26:57;;;;;;;;;;;;;;;5.78;71.13;102109.38;5052061;28;2087;-78
2023/04/17 00:29:23;;;;;;;;;;;;;;;5.78;71.08;102108.53;5066776;28;2140;-76
2023/04/17 00:31:50;;;;;;;;;;;;;;;5.79;70.97;102111.03;5050909;28;2206;-76
2023/04/17 00:34:16;;;;;;;;;;;;;;;5.78;71.36;102100.50;5054443;28;2078;-76
2023/04/17 00:36:43;;;;;;;;;;;;;;;5.78;71.20;102104.03;5051581;28;2042;-77
2023/04/17 00:39:10;;;;;;;;;;;;;;;5.76;71.18;102106.00;5074597;28;2156;-78
2023/04/17 00:41:36;;;;;;;;;;;;;;;5.77;71.47;102112.22;5061625;28;2106;-79
2023/04/17 00:44:03;;;;;;;;;;;;;;;5.76;71.30;102111.34;5058233;28;2159;-77
2023/04/17 00:46:30;;;;;;;;;;;;;;;5.76;71.36;102097.97;5057953;28;3308;-78
2023/04/17 00:48:56;;;;;;;;;;;;;;;5.75;71.29;102112.34;5074009;28;2178;-78
2023/04/17 00:51:23;;;;;;;;;;;;;;;5.75;71.65;102109.66;5064808;28;2181;-79
2023/04/17 00:53:49;;;;;;;;;;;;;;;5.75;71.60;102114.19;5058444;28;2144;-79
2023/04/17 00:56:16;;;;;;;;;;;;;;;5.75;71.48;102117.69;5060747;28;2333;-77
2023/04/17 00:58:42;;;;;;;;;;;;;;;5.74;71.91;102123.19;5059695;28;2719;-77
2023/04/17 01:01:09;;;;;;;;;;;;;;;5.72;71.71;102118.00;5058682;28;2224;-76
2023/04/17 01:03:36;;;;;;;;;;;;;;;5.73;71.71;102121.50;5058024;28;2167;-77
2023/04/17 01:06:02;;;;;;;;;;;;;;;5.72;71.84;102123.34;5057699;28;2621;-77
2023/04/17 01:08:29;;;;;;;;;;;;;;;5.73;71.71;102130.34;5054547;28;4986;-79
2023/04/17 01:10:55;;;;;;;;;;;;;;;5.72;71.80;102120.66;5059431;28;3401;-79
2023/04/17 01:13:22;;;;;;;;;;;;;;;5.72;71.91;102126.00;5059532;28;3147;-78
2023/04/17 01:15:48;;;;;;;;;;;;;;;5.70;71.70;102120.81;5057616;28;2214;-78
2023/04/17 01:18:15;;;;;;;;;;;;;;;5.71;71.62;102132.38;5060221;28;2739;-76
2023/04/17 01:20:41;;;;;;;;;;;;;;;5.70;71.59;102134.16;5066669;28;2681;-77
2023/04/17 01:23:08;;;;;;;;;;;;;;;5.70;71.90;102130.66;5067848;28;1894;-77
2023/04/17 01:25:34;;;;;;;;;;;;;;;5.70;71.89;102138.69;5066522;28;4227;-77
2023/04/17 01:28:01;;;;;;;;;;;;;;;5.69;71.64;102135.16;5064098;28;1045;-78
2023/04/17 01:30:27;;;;;;;;;;;;;;;5.69;71.93;102132.50;5067473;28;1545;-78
2023/04/17 01:32:54;;;;;;;;;;;;;;;5.68;71.62;102140.69;5067406;28;1077;-78
2023/04/17 01:35:21;;;;;;;;;;;;;;;5.68;71.72;102138.00;5067427;28;1476;-77
2023/04/17 01:37:48;;;;;;;;;;;;;;;5.68;71.80;102138.00;5067628;28;1389;-76
2023/04/17 01:40:14;;;;;;;;;;;;;;;5.67;71.94;102144.31;5065997;28;1049;-77
2023/04/17 01:42:41;;;;;;;;;;;;;;;5.67;71.64;102138.97;5064234;28;1902;-78
2023/04/17 01:45:07;;;;;;;;;;;;;;;5.66;72.00;102143.47;5067470;28;2116;-77
2023/04/17 01:47:34;;;;;;;;;;;;;;;5.66;71.95;102140.81;5066598;28;3849;-78
2023/04/17 01:50:00;;;;;;;;;;;;;;;5.66;71.73;102140.81;5064333;28;4165;-76
2023/04/17 01:52:27;;;;;;;;;;;;;;;5.65;71.90;102140.97;5064526;28;3638;-78
2023/04/17 01:54:53;;;;;;;;;;;;;;;5.65;71.78;102144.50;5062172;28;1318;-76
2023/04/17 01:57:20;;;;;;;;;;;;;;;5.65;71.86;102151.66;5062172;28;1069;-76
2023/04/17 01:59:47;;;;;;;;;;;;;;;5.64;71.86;102153.47;5063915;28;1074;-77
2023/04/17 02:02:13;;;;;;;;;;;;;;;5.65;71.85;102154.34;5079426;28;1721;-77
2023/04/17 02:04:40;;;;;;;;;;;;;;;5.64;71.81;102160.66;5061347;28;3744;-78
2023/04/17 02:07:06;;;;;;;;;;;;;;;5.62;71.72;102147.47;5063161;28;1514;-77
2023/04/17 02:09:33;;;;;;;;;;;;;;;5.62;71.89;102155.47;5062959;28;1514;-78
2023/04/17 02:12:00;;;;;;;;;;;;;;;5.63;71.73;102159.00;5061921;28;1527;-78
2023/04/17 02:14:27;;;;;;;;;;;;;;;5.62;71.73;102160.81;5062835;28;1261;-77
2023/04/17 02:16:53;;;;;;;;;;;;;;;5.61;71.71;102159.13;5056626;28;4373;-78
2023/04/17 02:19:20;;;;;;;;;;;;;;;5.60;71.65;102161.97;5060287;28;4706;-78
2023/04/17 02:21:46;;;;;;;;;;;;;;;5.59;71.77;102166.47;5058013;28;3299;-77
2023/04/17 02:24:13;;;;;;;;;;;;;;;5.60;71.44;102164.63;5058976;28;2392;-78
2023/04/17 02:26:39;;;;;;;;;;;;;;;5.58;71.71;102161.25;5059730;28;2258;-77
2023/04/17 02:29:06;;;;;;;;;;;;;;;5.59;71.75;102165.59;5051762;28;2118;-77
2023/04/17 02:31:32;;;;;;;;;;;;;;;5.59;71.54;102171.81;5047427;28;2107;-78
2023/04/17 02:33:59;;;;;;;;;;;;;;;5.57;71.76;102176.44;5039277;28;3764;-78
2023/04/17 02:36:26;;;;;;;;;;;;;;;5.57;71.74;102175.63;5039977;28;2027;-78
2023/04/17 02:38:52;;;;;;;;;;;;;;;5.57;71.53;102173.78;5052834;28;2054;-78
2023/04/17 02:41:19;;;;;;;;;;;;;;;5.56;71.62;102172.09;5047105;28;3336;-77
2023/04/17 02:43:45;;;;;;;;;;;;;;;5.57;71.47;102175.63;5040815;28;2091;-78
2023/04/17 02:46:12;;;;;;;;;;;;;;;5.55;71.55;102173.06;5036113;28;2743;-76
2023/04/17 02:48:39;;;;;;;;;;;;;;;5.56;71.48;102181.94;5047875;28;2087;-78
2023/04/17 02:51:05;;;;;;;;;;;;;;;5.55;71.45;102174.91;5040007;28;2028;-78
2023/04/17 02:53:32;;;;;;;;;;;;;;;5.56;71.49;102177.44;5045518;28;2081;-78
2023/04/17 02:55:58;;;;;;;;;;;;;;;5.55;71.46;102190.94;5050987;28;2197;-76
2023/04/17 02:58:25;;;;;;;;;;;;;;;5.55;71.27;102188.28;5036921;28;2202;-78
2023/04/17 03:00:52;;;;;;;;;;;;;;;5.56;71.13;102197.97;5038379;28;2604;-78
2023/04/17 03:03:18;;;;;;;;;;;;;;;5.55;71.03;102194.47;5044939;28;2176;-79
2023/04/17 03:05:45;;;;;;;;;;;;;;;5.52;71.30;102200.09;5041186;28;2753;-79
2023/04/17 03:08:11;;;;;;;;;;;;;;;5.52;70.76;102205.44;5040523;28;2015;-78
2023/04/17 03:10:38;;;;;;;;;;;;;;;5.52;71.17;102205.44;5046220;28;2241;-78
2023/04/17 03:13:05;;;;;;;;;;;;;;;5.50;71.26;102210.13;5041904;28;2467;-78
2023/04/17 03:15:31;;;;;;;;;;;;;;;5.50;71.31;102214.59;5040333;28;2023;-78
2023/04/17 03:17:58;;;;;;;;;;;;;;;5.49;71.16;102218.25;5047971;28;2075;-77
2023/04/17 03:20:24;;;;;;;;;;;;;;;5.49;71.16;102218.25;5043364;28;2113;-77
2023/04/17 03:22:51;;;;;;;;;;;;;;;5.49;71.23;102215.59;5035620;28;4796;-77
2023/04/17 03:25:18;;;;;;;;;;;;;;;5.49;71.20;102218.25;5059431;28;3967;-78
2023/04/17 03:27:44;;;;;;;;;;;;;;;5.45;71.26;102223.91;5067513;28;2109;-77
2023/04/17 03:30:11;;;;;;;;;;;;;;;5.47;71.04;102229.94;5047245;28;3325;-78
2023/04/17 03:32:38;;;;;;;;;;;;;;;5.45;71.03;102229.25;5067210;28;2116;-76
2023/04/17 03:35:05;;;;;;;;;;;;;;;5.45;71.22;102228.41;5058215;28;2073;-77
2023/04/17 03:37:31;;;;;;;;;;;;;;;5.44;71.10;102227.56;5068318;28;2034;-78
2023/04/17 03:39:58;;;;;;;;;;;;;;;5.45;71.14;102231.09;5064652;28;2208;-76
2023/04/17 03:42:24;;;;;;;;;;;;;;;5.45;70.98;102228.41;5061941;28;3880;-74
2023/04/17 03:44:51;;;;;;;;;;;;;;;5.44;70.88;102232.91;5047832;28;2738;-78
2023/04/17 03:47:18;;;;;;;;;;;;;;;5.42;71.02;102229.53;5059175;28;2105;-79
2023/04/17 03:49:44;;;;;;;;;;;;;;;5.41;71.09;102235.00;5062660;28;2085;-78
2023/04/17 03:52:11;;;;;;;;;;;;;;;5.41;70.88;102238.56;5060920;28;2033;-76
2023/04/17 03:54:37;;;;;;;;;;;;;;;5.43;70.86;102247.25;5059960;28;2132;-75
2023/04/17 03:57:04;;;;;;;;;;;;;;;5.43;70.99;102241.91;5042419;28;2135;-76
2023/04/17 03:59:30;;;;;;;;;;;;;;;5.41;70.93;102249.25;5062330;28;2152;-78
2023/04/17 04:01:57;;;;;;;;;;;;;;;5.42;70.72;102250.91;5065303;28;2717;-76
2023/04/17 04:04:24;;;;;;;;;;;;;;;5.46;70.55;102259.47;5060863;28;2074;-79
2023/04/17 04:06:51;;;;;;;;;;;;;;;5.55;70.46;102260.44;5051708;28;2022;-78
2023/04/17 04:09:18;;;;;;;;;;;;;;;5.55;70.33;102261.28;5057285;28;2121;-75
2023/04/17 04:11:44;;;;;;;;;;;;;;;5.44;70.78;102264.97;5048036;28;2127;-78
2023/04/17 04:14:11;;;;;;;;;;;;;;;5.42;70.72;102260.78;5059521;28;2183;-76
2023/04/17 04:16:37;;;;;;;;;;;;;;;5.47;70.41;102263.81;5062228;28;3060;-78
2023/04/17 04:19:04;;;;;;;;;;;;;;;5.48;70.40;102262.88;5060516;28;2191;-77
2023/04/17 04:21:30;;;;;;;;;;;;;;;5.51;70.26;102269.75;5044435;28;2435;-77
2023/04/17 04:23:57;;;;;;;;;;;;;;;5.60;69.81;102279.56;5058536;28;2518;-77
2023/04/17 04:26:24;;;;;;;;;;;;;;;5.46;70.33;102275.50;5056850;28;2622;-79
2023/04/17 04:28:52;;;;;;;;;;;;;;;5.54;69.85;102281.00;5041698;28;5094;-78
2023/04/17 04:31:19;;;;;;;;;;;;;;;5.75;69.25;102286.13;5062365;28;2277;-76
2023/04/17 04:33:45;;;;;;;;;;;;;;;5.61;69.72;102295.44;5040902;28;2634;-75
2023/04/17 04:36:12;;;;;;;;;;;;;;;5.84;68.71;102290.59;5061733;28;2591;-77
2023/04/17 04:38:39;;;;;;;;;;;;;;;5.79;68.84;102298.22;5041417;28;2155;-74
2023/04/17 04:41:09;;;;;;;;;;;;;;;5.77;68.83;102302.03;5059745;28;2058;-76
2023/04/17 04:43:41;;;;;;;;;;;;;;;5.96;68.11;102296.63;5047523;28;2097;-77
2023/04/17 04:46:09;;;;;;;;;;;;;;;6.04;68.03;102304.78;5073610;28;3654;-77
2023/04/17 04:48:35;;;;;;;;;;;;;;;5.73;68.46;102312.16;5071998;28;2611;-77
2023/04/17 04:51:02;;;;;;;;;;;;;;;5.76;68.83;102297.66;5075648;28;2113;-76
2023/04/17 04:53:28;;;;;;;;;;;;;;;6.03;67.98;102313.81;5075874;28;2039;-75
2023/04/17 04:55:55;;;;;;;;;;;;;;;6.16;67.11;102313.47;5072776;28;2621;-76
2023/04/17 04:58:21;;;;;;;;;;;;;;;5.99;67.32;102316.91;5053023;28;2840;-76
2023/04/17 05:00:48;;;;;;;;;;;;;;;5.96;67.90;102317.19;5070565;28;2089;-78
2023/04/17 05:03:15;;;;;;;;;;;;;;;6.09;67.41;102323.06;5055610;28;2125;-75
2023/04/17 05:05:42;;;;;;;;;;;;;;;5.94;67.69;102317.31;5053004;28;2106;-79
2023/04/17 05:08:08;;;;;;;;;;;;;;;5.99;67.71;102316.91;5072005;28;2730;-76
2023/04/17 05:10:35;;;;;;;;;;;;;;;6.07;67.35;102315.19;5071568;28;2156;-80
2023/04/17 05:13:01;;;;;;;;;;;;;;;5.89;67.91;102314.25;5071384;28;2125;-76
2023/04/17 05:15:28;;;;;;;;;;;;;;;6.04;67.46;102317.31;5071848;28;2155;-78
2023/04/17 05:17:55;;;;;;;;;;;;;;;5.99;67.56;102325.75;5073180;28;2137;-77
2023/04/17 05:20:21;;;;;;;;;;;;;;;5.90;67.43;102329.28;5064314;28;2552;-78
2023/04/17 05:22:48;;;;;;;;;;;;;;;5.90;67.78;102326.63;5055470;28;2180;-77
2023/04/17 05:25:15;;;;;;;;;;;;;;;6.13;67.12;102332.47;5076588;28;2407;-77
2023/04/17 05:27:42;;;;;;;;;;;;;;;6.10;67.23;102332.78;5076195;28;2228;-77
2023/04/17 05:30:08;;;;;;;;;;;;;;;6.01;67.12;102339.00;5069830;28;5205;-77
2023/04/17 05:32:35;;;;;;;;;;;;;;;5.99;67.40;102333.78;5073062;28;3374;-75
2023/04/17 05:35:01;;;;;;;;;;;;;;;6.16;66.91;102336.69;5067100;28;2120;-79
2023/04/17 05:37:28;;;;;;;;;;;;;;;5.97;67.42;102342.94;5060987;28;4026;-79
2023/04/17 05:39:55;;;;;;;;;;;;;;;5.97;67.41;102345.63;5072205;28;2157;-77
2023/04/17 05:42:21;;;;;;;;;;;;;;;5.32;67.72;102252.75;5082589;28;2272;-75
2023/04/17 05:44:48;;;;;;;;;;;;;;;6.08;66.92;102343.59;5074788;28;2577;-77
2023/04/17 05:47:14;;;;;;;;;;;;;;;5.94;67.32;102343.25;5055426;28;2275;-77
2023/04/17 05:49:42;;;;;;;;;;;;;;;5.95;67.42;102347.63;5073665;28;3865;-77
2023/04/17 05:52:09;;;;;;;;;;;;;;;5.85;67.62;102347.59;5074489;28;2165;-79
2023/04/17 05:54:35;;;;;;;;;;;;;;;5.90;67.36;102348.00;5074193;28;2504;-77
2023/04/17 05:57:02;;;;;;;;;;;;;;;5.84;67.55;102360.13;5077305;28;2235;-78
2023/04/17 05:59:29;;;;;;;;;;;;;;;5.63;68.21;102365.66;5084064;28;2188;-80
2023/04/17 06:01:58;;;;;;;;;;;;;;;5.63;68.46;102368.34;5067883;28;1172;-75
2023/04/17 06:04:25;;;;;;;;;;;;;;;5.69;67.88;102367.75;5067655;28;2499;-79
2023/04/17 06:06:51;;;;;;;;;;;;;;;5.66;68.29;102372.56;5083765;28;1132;-77
2023/04/17 06:09:18;;;;;;;;;;;;;;;5.73;68.03;102370.13;5066280;28;1052;-78
2023/04/17 06:11:44;;;;;;;;;;;;;;;5.53;68.46;102370.19;5084787;28;1553;-78
2023/04/17 06:14:11;;;;;;;;;;;;;;;5.49;68.81;102371.44;5077485;28;1700;-77
2023/04/17 06:16:38;;;;;;;;;;;;;;;5.61;68.23;102367.63;5080642;28;2035;-77
2023/04/17 06:19:04;;;;;;;;;;;;;;;5.63;68.33;102368.34;5083601;28;2056;-79
2023/04/17 06:21:31;;;;;;;;;;;;;;;5.67;68.11;102368.88;5074021;28;1680;-78
2023/04/17 06:23:58;;;;;;;;;;;;;;;5.49;68.83;102373.28;5072405;28;2016;-78
2023/04/17 06:26:24;;;;;;;;;;;;;;;5.52;68.77;102362.28;5075018;28;1652;-79
2023/04/17 06:28:53;;;;;;;;;;;;;;;5.67;68.29;102374.22;5054537;28;1877;-78
2023/04/17 06:31:20;;;;;;;;;;;;;;;5.55;68.64;102375.38;5069323;28;4686;-78
2023/04/17 06:33:48;;;;;;;;;;;;;;;5.42;68.75;102381.03;5074082;28;4182;-77
2023/04/17 06:36:15;;;;;;;;;;;;;;;5.26;69.47;102386.91;5078299;28;2004;-80
2023/04/17 06:38:41;;;;;;;;;;;;;;;5.24;69.47;102383.56;5076732;28;3219;-77
2023/04/17 06:41:08;;;;;;;;;;;;;;;5.21;69.73;102384.66;5078688;28;1998;-76
2023/04/17 06:43:34;;;;;;;;;;;;;;;5.16;69.76;102378.91;5080221;28;2159;-79
2023/04/17 06:46:01;;;;;;;;;;;;;;;5.22;69.49;102389.03;5081799;28;3730;-79
2023/04/17 06:48:27;;;;;;;;;;;;;;;5.17;69.95;102390.41;5080171;28;3799;-78
2023/04/17 06:50:55;;;;;;;;;;;;;;;5.15;70.04;102384.41;5083656;28;2342;-78
2023/04/17 06:53:21;;;;;;;;;;;;;;;5.14;69.59;102386.19;5083202;28;2736;-77
2023/04/17 06:55:48;;;;;;;;;;;;;;;5.13;69.94;102389.03;5083306;28;1005;-79
2023/04/17 06:58:14;;;;;;;;;;;;;;;5.13;69.99;102395.22;5083211;28;1215;-78
2023/04/17 07:00:41;;;;;;;;;;;;;;;5.15;69.83;102403.94;5064451;28;2165;-78
2023/04/17 07:03:07;;;;;;;;;;;;;;;5.13;69.88;102402.38;5063286;28;1726;-79
2023/04/17 07:05:34;;;;;;;;;;;;;;;5.13;70.00;102402.38;5082754;28;2768;-79
2023/04/17 07:08:00;;;;;;;;;;;;;;;5.12;69.91;102409.56;5061976;28;1895;-79
2023/04/17 07:10:27;;;;;;;;;;;;;;;5.12;69.87;102411.38;5077504;28;1627;-78
2023/04/17 07:12:54;;;;;;;;;;;;;;;5.13;69.79;102411.22;5071618;28;1580;-77
2023/04/17 07:15:20;;;;;;;;;;;;;;;5.13;69.89;102413.91;5072055;28;1660;-76
2023/04/17 07:17:47;;;;;;;;;;;;;;;5.12;69.94;102409.56;5071912;28;2001;-79
2023/04/17 07:20:13;;;;;;;;;;;;;;;5.13;69.71;102415.72;5073535;28;1665;-78
2023/04/17 07:22:40;;;;;;;;;;;;;;;5.13;70.03;102418.41;5082126;28;2082;-78
2023/04/17 07:25:06;;;;;;;;;;;;;;;5.13;70.02;102413.91;5082821;28;1971;-78
2023/04/17 07:27:33;;;;;;;;;;;;;;;5.13;69.88;102418.41;5082915;28;965;-78
2023/04/17 07:30:00;;;;;;;;;;;;;;;5.14;69.84;102425.44;5064241;28;2039;-78
2023/04/17 07:32:27;;;;;;;;;;;;;;;5.15;69.84;102416.44;5078788;28;4467;-79
2023/04/17 07:34:53;;;;;;;;;;;;;;;5.16;69.71;102428.81;5078506;28;4569;-80
2023/04/17 07:37:20;;;;;;;;;;;;;;;5.15;70.07;102429.81;5081136;28;1319;-79
2023/04/17 07:39:47;;;;;;;;;;;;;;;5.18;69.72;102429.53;5082267;28;4038;-78
2023/04/17 07:42:13;;;;;;;;;;;;;;;5.17;69.90;102433.16;5072237;28;2641;-77
2023/04/17 07:44:40;;;;;;;;;;;;;;;5.15;69.85;102430.66;5072651;28;2117;-80
2023/04/17 07:47:06;;;;;;;;;;;;;;;5.16;69.76;102431.47;5082702;28;2195;-78
2023/04/17 07:49:34;;;;;;;;;;;;;;;5.16;70.00;102436.81;5080772;28;2355;-78
2023/04/17 07:52:00;;;;;;;;;;;;;;;5.16;69.87;102435.00;5065286;28;3615;-76
2023/04/17 07:54:27;;;;;;;;;;;;;;;5.17;69.86;102439.34;5080806;28;2196;-78
2023/04/17 07:56:55;;;;;;;;;;;;;;;5.16;69.96;102435.00;5081223;28;2133;-77
2023/04/17 07:59:22;;;;;;;;;;;;;;;5.16;69.90;102443.00;5083398;28;1141;-78
2023/04/17 08:01:48;;;;;;;;;;;;;;;5.19;69.76;102444.56;5065477;28;2293;-79
2023/04/17 08:04:15;;;;;;;;;;;;;;;5.18;69.89;102442.88;5082417;28;1975;-76
2023/04/17 08:06:42;;;;;;;;;;;;;;;5.18;69.89;102450.91;5082580;28;1742;-78
2023/04/17 08:09:08;;;;;;;;;;;;;;;5.18;70.00;102448.22;5079508;28;1406;-80
2023/04/17 08:11:35;;;;;;;;;;;;;;;5.17;69.77;102450.03;5064728;28;2738;-75
2023/04/17 08:14:01;;;;;;;;;;;;;;;5.17;69.88;102450.03;5082020;28;2156;-78
2023/04/17 08:16:28;;;;;;;;;;;;;;;5.18;69.86;102451.75;5081454;28;1778;-77
2023/04/17 08:18:55;;;;;;;;;;;;;;;5.20;69.86;102455.09;5063337;28;1317;-79
2023/04/17 08:21:21;;;;;;;;;;;;;;;5.20;69.87;102449.75;5081510;28;1029;-79
2023/04/17 08:23:48;;;;;;;;;;;;;;;5.21;69.88;102456.81;5065486;28;1387;-76
2023/04/17 08:26:17;;;;;;;;;;;;;;;5.22;69.85;102454.97;5061525;28;2470;-76
2023/04/17 08:28:43;;;;;;;;;;;;;;;5.23;69.89;102453.97;5059186;28;2064;-80
2023/04/17 08:31:10;;;;;;;;;;;;;;;5.23;69.90;102452.19;5079388;28;2135;-75
2023/04/17 08:33:36;;;;;;;;;;;;;;;5.22;69.97;102450.47;5061244;28;4417;-80
2023/04/17 08:36:03;;;;;;;;;;;;;;;5.23;70.08;102438.81;5079019;28;4809;-79
2023/04/17 08:38:30;;;;;;;;;;;;;;;5.25;69.95;102441.34;5061100;28;2189;-79
2023/04/17 08:40:57;;;;;;;;;;;;;;;5.24;69.88;102443.16;5062945;28;3613;-77
2023/04/17 08:43:24;;;;;;;;;;;;;;;5.23;69.87;102445.97;5081198;28;1888;-76
2023/04/17 08:45:54;;;;;;;;;;;;;;;5.23;70.12;102444.16;5064231;28;1967;-78
2023/04/17 08:48:20;;;;;;;;;;;;;;;5.26;70.03;102445.69;5063482;28;2112;-80
2023/04/17 08:50:47;;;;;;;;;;;;;;;5.27;69.99;102435.88;5082865;28;984;-77
2023/04/17 08:53:14;;;;;;;;;;;;;;;5.27;70.04;102439.38;5062459;28;1701;-77
2023/04/17 08:55:40;;;;;;;;;;;;;;;5.27;70.04;102443.88;5078536;28;1307;-78
2023/04/17 08:58:07;;;;;;;;;;;;;;;5.27;70.11;102438.53;5079334;28;1881;-78
2023/04/17 09:00:34;;;;;;;;;;;;;;;5.28;70.14;102440.22;5068367;28;2043;-77
2023/04/17 09:03:01;;;;;;;;;;;;;;;5.29;69.89;102433.88;5067348;28;1621;-78
2023/04/17 09:05:29;;;;;;;;;;;;;;;5.30;69.94;102441.78;5084928;28;1973;-77
2023/04/17 09:07:56;;;;;;;;;;;;;;;5.29;69.98;102442.72;5066546;28;2076;-80
2023/04/17 09:10:22;;;;;;;;;;;;;;;5.30;70.14;102436.44;5085364;28;1689;-78
2023/04/17 09:12:51;;;;;;;;;;;;;;;5.31;70.22;102446.13;5085676;28;949;-77
2023/04/17 09:15:18;;;;;;;;;;;;;;;5.32;70.07;102450.47;5083995;28;2068;-78
2023/04/17 09:17:44;;;;;;;;;;;;;;;5.33;70.10;102449.50;5083521;28;3496;-78
2023/04/17 09:20:11;;;;;;;;;;;;;;;5.33;70.35;102454.84;5081771;28;3566;-77
2023/04/17 09:22:39;;;;;;;;;;;;;;;5.35;70.12;102454.69;5075278;28;2519;-77
2023/04/17 09:25:05;;;;;;;;;;;;;;;5.35;70.23;102450.19;5073637;28;2058;-77
2023/04/17 09:27:32;;;;;;;;;;;;;;;5.36;69.97;102457.25;5076265;28;2065;-77
2023/04/17 09:29:58;;;;;;;;;;;;;;;5.36;70.39;102454.56;5062556;28;1932;-77
2023/04/17 09:32:25;;;;;;;;;;;;;;;5.37;70.19;102455.41;5078430;28;2160;-75
2023/04/17 09:34:53;;;;;;;;;;;;;;;5.37;70.16;102464.25;5065673;28;2530;-76
2023/04/17 09:37:19;;;;;;;;;;;;;;;5.39;70.09;102459.63;5075506;28;2584;-76
2023/04/17 09:39:47;;;;;;;;;;;;;;;5.39;70.09;102464.16;5074239;28;1994;-75
2023/04/17 09:42:13;;;;;;;;;;;;;;;5.41;70.23;102462.16;5074779;28;4606;-76
2023/04/17 09:44:41;;;;;;;;;;;;;;;5.41;70.22;102467.50;5076861;28;3245;-76
2023/04/17 09:47:07;;;;;;;;;;;;;;;5.41;70.32;102473.72;5062525;28;3467;-76
2023/04/17 09:49:35;;;;;;;;;;;;;;;5.43;70.25;102468.22;5076649;28;3881;-76
2023/04/17 09:52:01;;;;;;;;;;;;;;;5.43;70.32;102470.88;5083044;28;3635;-79
2023/04/17 09:54:30;;;;;;;;;;;;;;;5.45;70.33;102476.94;5083715;28;2155;-78
2023/04/17 09:56:56;;;;;;;;;;;;;;;5.45;70.32;102471.59;5082918;28;2808;-78
2023/04/17 09:59:23;;;;;;;;;;;;;;;5.45;70.28;102471.59;5065291;28;2227;-77
2023/04/17 10:01:50;;;;;;;;;;;;;;;5.46;70.52;102473.28;5083140;28;1712;-76
2023/04/17 10:04:16;;;;;;;;;;;;;;;5.47;70.28;102464.25;5084262;28;1342;-76
2023/04/17 10:06:43;;;;;;;;;;;;;;;5.49;70.34;102466.81;5082166;28;2162;-75
2023/04/17 10:09:09;;;;;;;;;;;;;;;5.49;70.44;102466.81;5084483;28;2853;-74
2023/04/17 10:11:36;;;;;;;;;;;;;;;5.50;70.48;102468.50;5063846;28;1510;-76
2023/04/17 10:14:02;;;;;;;;;;;;;;;5.51;70.51;102462.19;5082134;28;1524;-77
2023/04/17 10:16:29;;;;;;;;;;;;;;;5.52;70.51;102464.69;5064702;28;2170;-75
2023/04/17 10:18:56;;;;;;;;;;;;;;;5.53;70.55;102471.75;5081216;28;2180;-77
2023/04/17 10:21:23;;;;;;;;;;;;;;;5.54;70.70;102465.41;5084591;28;1442;-74
2023/04/17 10:23:49;;;;;;;;;;;;;;;5.55;70.77;102475.09;5080971;28;2182;-74
2023/04/17 10:26:16;;;;;;;;;;;;;;;5.56;70.90;102465.25;5081378;28;2024;-76
2023/04/17 10:28:43;;;;;;;;;;;;;;;5.56;70.76;102473.28;5083474;28;1580;-76
2023/04/17 10:31:09;;;;;;;;;;;;;;;5.58;70.59;102471.31;5065186;28;1928;-74
2023/04/17 10:33:36;;;;;;;;;;;;;;;5.58;70.71;102474.81;5066588;28;1993;-76
2023/04/17 10:36:03;;;;;;;;;;;;;;;5.59;70.86;102468.53;5077262;28;4079;-76
2023/04/17 10:38:29;;;;;;;;;;;;;;;5.61;71.02;102466.53;5083657;28;2720;-76
2023/04/17 10:40:56;;;;;;;;;;;;;;;5.63;70.75;102472.59;5083327;28;2052;-77
2023/04/17 10:43:23;;;;;;;;;;;;;;;5.64;71.00;102470.75;5080984;28;3037;-76
2023/04/17 10:45:50;;;;;;;;;;;;;;;5.64;71.11;102474.25;5079004;28;2182;-79
2023/04/17 10:48:16;;;;;;;;;;;;;;;5.65;71.12;102470.63;5059768;28;4696;-77
2023/04/17 10:50:43;;;;;;;;;;;;;;;5.66;71.08;102472.31;5082945;28;3899;-77
2023/04/17 10:53:10;;;;;;;;;;;;;;;5.67;71.00;102471.31;5082899;28;1378;-76
2023/04/17 10:55:36;;;;;;;;;;;;;;;5.68;71.15;102478.38;5082641;28;4266;-76
2023/04/17 10:58:03;;;;;;;;;;;;;;;5.70;71.16;102479.06;5064469;28;1624;-77
2023/04/17 11:00:30;;;;;;;;;;;;;;;5.71;71.20;102471.91;5066110;28;1536;-78
2023/04/17 11:02:56;;;;;;;;;;;;;;;5.73;71.29;102477.09;5081681;28;2162;-78
2023/04/17 11:05:23;;;;;;;;;;;;;;;5.73;71.34;102467.22;5082241;28;2069;-79
2023/04/17 11:07:50;;;;;;;;;;;;;;;5.75;71.37;102472.44;5079231;28;3796;-75
2023/04/17 11:10:20;;;;;;;;;;;;;;;5.76;71.42;102466.94;5079873;28;2340;-76
2023/04/17 11:12:47;;;;;;;;;;;;;;;5.77;71.47;102471.34;5064013;28;1551;-77
2023/04/17 11:15:14;;;;;;;;;;;;;;;5.78;71.58;102466.81;5058955;28;5133;-78
2023/04/17 11:17:40;;;;;;;;;;;;;;;5.79;71.40;102469.34;5077680;28;5288;-77
2023/04/17 11:20:07;;;;;;;;;;;;;;;5.81;71.67;102471.88;5077391;28;2220;-77
2023/04/17 11:22:33;;;;;;;;;;;;;;;5.81;71.40;102470.06;5064121;28;2906;-76
2023/04/17 11:25:00;;;;;;;;;;;;;;;5.84;71.50;102471.59;5080117;28;2079;-77
2023/04/17 11:27:27;;;;;;;;;;;;;;;5.84;71.35;102472.44;5082285;28;1969;-77
2023/04/17 11:29:53;;;;;;;;;;;;;;;5.85;71.63;102473.28;5082232;28;2149;-76
2023/04/17 11:32:20;;;;;;;;;;;;;;;5.87;72.00;102468.63;5063365;28;2137;-77
2023/04/17 11:34:46;;;;;;;;;;;;;;;5.89;71.88;102469.34;5081023;28;2789;-78
2023/04/17 11:37:13;;;;;;;;;;;;;;;5.90;71.59;102463.00;5078772;28;2089;-77
2023/04/17 11:39:39;;;;;;;;;;;;;;;5.90;71.80;102474.53;5080722;28;2183;-77
2023/04/17 11:42:06;;;;;;;;;;;;;;;5.93;71.88;102476.13;5064819;28;2195;-77
2023/04/17 11:44:32;;;;;;;;;;;;;;;5.95;71.81;102467.97;5079660;28;2286;-78
2023/04/17 11:46:59;;;;;;;;;;;;;;;5.95;72.00;102466.13;5078430;28;1914;-78
2023/04/17 11:49:26;;;;;;;;;;;;;;;5.97;72.02;102465.97;5080105;28;2459;-78
2023/04/17 11:51:52;;;;;;;;;;;;;;;5.98;71.98;102471.19;5064258;28;2471;-74
2023/04/17 11:54:19;;;;;;;;;;;;;;;6.01;72.20;102478.09;5062360;28;2302;-75
2023/04/17 11:56:46;;;;;;;;;;;;;;;6.01;72.07;102470.06;5078566;28;2277;-76
2023/04/17 11:59:12;;;;;;;;;;;;;;;6.03;72.18;102468.94;5071520;28;5385;-76
2023/04/17 12:01:39;;;;;;;;;;;;;;;6.04;72.39;102469.78;5073300;28;1917;-76
2023/04/17 12:04:06;;;;;;;;;;;;;;;6.06;72.24;102462.44;5064051;28;2079;-76
2023/04/17 12:06:32;;;;;;;;;;;;;;;6.07;72.38;102474.84;5063682;28;1910;-76
2023/04/17 12:08:59;;;;;;;;;;;;;;;6.08;72.50;102471.19;5062879;28;1981;-76
2023/04/17 12:11:26;;;;;;;;;;;;;;;6.10;72.30;102485.25;5081721;28;1089;-76
2023/04/17 12:13:52;;;;;;;;;;;;;;;6.11;72.54;102477.06;5070821;28;2031;-74
2023/04/17 12:16:19;;;;;;;;;;;;;;;6.12;72.37;102484.13;5063104;28;2039;-74
2023/04/17 12:18:45;;;;;;;;;;;;;;;6.14;72.21;102474.13;5063818;28;2116;-78
2023/04/17 12:21:12;;;;;;;;;;;;;;;6.14;72.61;102483.97;5064091;28;1033;-73
2023/04/17 12:23:38;;;;;;;;;;;;;;;6.17;72.15;102489.03;5082219;28;1604;-76
2023/04/17 12:26:05;;;;;;;;;;;;;;;6.19;72.22;102481.72;5081346;28;1914;-76
2023/04/17 12:28:31;;;;;;;;;;;;;;;6.21;72.06;102484.28;5081182;28;1982;-76
2023/04/17 12:30:58;;;;;;;;;;;;;;;6.22;72.44;102483.28;5078846;28;2034;-76
2023/04/17 12:33:25;;;;;;;;;;;;;;;6.24;72.55;102484.81;5079370;28;1996;-76
2023/04/17 12:35:51;;;;;;;;;;;;;;;6.26;72.34;102479.31;5079235;28;1598;-78
2023/04/17 12:38:18;;;;;;;;;;;;;;;6.27;72.60;102475.66;5072821;28;5629;-78
2023/04/17 12:40:44;;;;;;;;;;;;;;;6.28;72.66;102483.53;5061951;28;4575;-77
2023/04/17 12:43:11;;;;;;;;;;;;;;;6.30;72.51;102472.69;5080712;28;2100;-78
2023/04/17 12:45:37;;;;;;;;;;;;;;;6.32;72.99;102476.06;5079164;28;4733;-77
2023/04/17 12:48:04;;;;;;;;;;;;;;;6.31;73.00;102469.84;5081731;28;1775;-77
2023/04/17 12:50:30;;;;;;;;;;;;;;;6.35;72.73;102481.97;5081242;28;2020;-78
2023/04/17 12:52:57;;;;;;;;;;;;;;;6.35;73.15;102465.91;5079641;28;1563;-76